sensor_id;sensor_type;location;lat;lon;timestamp;pressure;altitude;pressure_sealevel;temperature;humidity
60427;BME280;46274;47.168;27.604;2022-08-19T00:01:36;99646.75;;;23.72;68.61
60427;BME280;46274;47.168;27.604;2022-08-19T00:07:39;99661.16;;;23.79;68.34
60427;BME280;46274;47.168;27.604;2022-08-19T00:13:40;99670.84;;;23.87;68.83
60427;BME280;46274;47.168;27.604;2022-08-19T00:19:42;99650.06;;;23.74;68.84
60427;BME280;46274;47.168;27.604;2022-08-19T00:25:45;99678.88;;;23.88;68.32
60427;BME280;46274;47.168;27.604;2022-08-19T00:31:50;99656.94;;;23.71;68.83
60427;BME280;46274;47.168;27.604;2022-08-19T00:37:55;99661.97;;;23.75;69.00
60427;BME280;46274;47.168;27.604;2022-08-19T00:44:03;99652.78;;;23.69;68.87
60427;BME280;46274;47.168;27.604;2022-08-19T00:50:07;99688.25;;;23.82;68.65
60427;BME280;46274;47.168;27.604;2022-08-19T00:56:10;99673.31;;;23.78;68.86
60427;BME280;46274;47.168;27.604;2022-08-19T01:02:12;99622.88;;;23.50;68.60
60427;BME280;46274;47.168;27.604;2022-08-19T01:08:15;99675.28;;;23.83;68.57
60427;BME280;46274;47.168;27.604;2022-08-19T01:14:19;99674.41;;;23.77;68.66
60427;BME280;46274;47.168;27.604;2022-08-19T01:20:22;99665.53;;;23.70;68.65
60427;BME280;46274;47.168;27.604;2022-08-19T01:26:25;99680.50;;;23.79;68.90
60427;BME280;46274;47.168;27.604;2022-08-19T01:32:27;99668.56;;;23.68;68.78
60427;BME280;46274;47.168;27.604;2022-08-19T01:38:38;99640.59;;;23.55;68.65
60427;BME280;46274;47.168;27.604;2022-08-19T01:44:45;99681.88;;;23.77;68.37
60427;BME280;46274;47.168;27.604;2022-08-19T01:50:47;99670.00;;;23.76;68.56
60427;BME280;46274;47.168;27.604;2022-08-19T01:56:51;99657.25;;;23.70;68.40
60427;BME280;46274;47.168;27.604;2022-08-19T02:02:54;99657.22;;;23.65;68.46
60427;BME280;46274;47.168;27.604;2022-08-19T02:08:56;99675.25;;;23.72;68.91
60427;BME280;46274;47.168;27.604;2022-08-19T02:14:59;99675.25;;;23.72;68.92
60427;BME280;46274;47.168;27.604;2022-08-19T02:21:01;99664.69;;;23.69;68.25
60427;BME280;46274;47.168;27.604;2022-08-19T02:27:03;99664.41;;;23.71;68.52
60427;BME280;46274;47.168;27.604;2022-08-19T02:33:06;99677.16;;;23.72;68.29
60427;BME280;46274;47.168;27.604;2022-08-19T02:39:08;99665.22;;;23.66;68.40
60427;BME280;46274;47.168;27.604;2022-08-19T02:45:10;99682.69;;;23.72;68.20
60427;BME280;46274;47.168;27.604;2022-08-19T02:51:19;99683.78;;;23.71;68.34
60427;BME280;46274;47.168;27.604;2022-08-19T02:57:22;99648.59;;;23.46;68.29
60427;BME280;46274;47.168;27.604;2022-08-19T03:03:24;99661.59;;;23.50;68.32
60427;BME280;46274;47.168;27.604;2022-08-19T03:09:26;99701.22;;;23.71;68.48
60427;BME280;46274;47.168;27.604;2022-08-19T03:15:28;99700.38;;;23.71;68.25
60427;BME280;46274;47.168;27.604;2022-08-19T03:21:31;99707.03;;;23.70;68.50
60427;BME280;46274;47.168;27.604;2022-08-19T03:27:34;99705.06;;;23.60;68.58
60427;BME280;46274;47.168;27.604;2022-08-19T03:33:38;99718.34;;;23.68;68.38
60427;BME280;46274;47.168;27.604;2022-08-19T03:39:41;99722.50;;;23.66;68.26
60427;BME280;46274;47.168;27.604;2022-08-19T03:45:43;99730.19;;;23.59;68.50
60427;BME280;46274;47.168;27.604;2022-08-19T03:51:47;99737.44;;;23.65;68.38
60427;BME280;46274;47.168;27.604;2022-08-19T03:57:49;99737.69;;;23.58;68.13
60427;BME280;46274;47.168;27.604;2022-08-19T04:03:51;99765.63;;;23.67;68.54
60427;BME280;46274;47.168;27.604;2022-08-19T04:09:54;99753.69;;;23.51;68.45
60427;BME280;46274;47.168;27.604;2022-08-19T04:15:56;99783.09;;;23.67;68.20
60427;BME280;46274;47.168;27.604;2022-08-19T04:21:58;99782.84;;;23.74;68.02
60427;BME280;46274;47.168;27.604;2022-08-19T04:28:00;99747.91;;;23.58;67.76
60427;BME280;46274;47.168;27.604;2022-08-19T04:34:06;99774.56;;;23.79;67.85
60427;BME280;46274;47.168;27.604;2022-08-19T04:40:08;99764.31;;;23.80;67.50
60427;BME280;46274;47.168;27.604;2022-08-19T04:46:29;99752.78;;;23.35;68.04
60427;BME280;46274;47.168;27.604;2022-08-19T04:52:52;99718.38;;;23.11;69.07
60427;BME280;46274;47.168;27.604;2022-08-19T04:58:56;99750.00;;;23.30;69.13
60427;BME280;46274;47.168;27.604;2022-08-19T05:04:59;99736.28;;;23.56;68.02
60427;BME280;46274;47.168;27.604;2022-08-19T05:11:09;99767.22;;;24.26;66.53
60427;BME280;46274;47.168;27.604;2022-08-19T05:17:14;99770.31;;;24.55;65.65
60427;BME280;46274;47.168;27.604;2022-08-19T05:23:36;99762.00;;;24.91;64.32
60427;BME280;46274;47.168;27.604;2022-08-19T05:29:38;99771.41;;;25.10;63.83
60427;BME280;46274;47.168;27.604;2022-08-19T05:35:40;99758.63;;;25.09;64.16
60427;BME280;46274;47.168;27.604;2022-08-19T05:41:43;99695.81;;;24.74;63.68
60427;BME280;46274;47.168;27.604;2022-08-19T05:47:45;99745.88;;;25.13;63.67
60427;BME280;46274;47.168;27.604;2022-08-19T05:53:47;99698.03;;;24.62;64.49
60427;BME280;46274;47.168;27.604;2022-08-19T05:59:49;99720.44;;;24.65;64.43
60427;BME280;46274;47.168;27.604;2022-08-19T06:05:59;99769.19;;;25.02;64.60
60427;BME280;46274;47.168;27.604;2022-08-19T06:12:01;99738.41;;;24.98;64.69
60427;BME280;46274;47.168;27.604;2022-08-19T06:18:04;99769.78;;;24.89;65.50
60427;BME280;46274;47.168;27.604;2022-08-19T06:24:07;99736.53;;;24.63;65.84
60427;BME280;46274;47.168;27.604;2022-08-19T06:30:11;99766.44;;;24.76;65.84
60427;BME280;46274;47.168;27.604;2022-08-19T06:36:29;99757.84;;;24.73;65.82
60427;BME280;46274;47.168;27.604;2022-08-19T06:42:35;99783.88;;;24.92;65.67
60427;BME280;46274;47.168;27.604;2022-08-19T06:48:39;99725.47;;;24.73;64.71
60427;BME280;46274;47.168;27.604;2022-08-19T06:54:46;99791.34;;;25.33;64.59
60427;BME280;46274;47.168;27.604;2022-08-19T07:00:57;99781.38;;;25.21;64.69
60427;BME280;46274;47.168;27.604;2022-08-19T07:07:10;99776.66;;;25.27;64.49
60427;BME280;46274;47.168;27.604;2022-08-19T07:13:21;99781.09;;;25.13;64.93
60427;BME280;46274;47.168;27.604;2022-08-19T07:19:25;99775.84;;;25.16;64.69
60427;BME280;46274;47.168;27.604;2022-08-19T07:25:30;99771.94;;;25.12;64.76
60427;BME280;46274;47.168;27.604;2022-08-19T07:31:33;99786.91;;;25.21;64.38
60427;BME280;46274;47.168;27.604;2022-08-19T07:37:38;99793.84;;;25.24;64.31
60427;BME280;46274;47.168;27.604;2022-08-19T07:43:46;99798.00;;;25.21;64.84
60427;BME280;46274;47.168;27.604;2022-08-19T07:49:48;99790.81;;;25.26;64.23
60427;BME280;46274;47.168;27.604;2022-08-19T08:12:52;99753.06;;;25.14;64.52
60427;BME280;46274;47.168;27.604;2022-08-19T08:19:12;99781.38;;;25.11;65.43
60427;BME280;46274;47.168;27.604;2022-08-19T08:25:26;99755.34;;;24.97;65.29
60427;BME280;46274;47.168;27.604;2022-08-19T08:31:32;99746.47;;;25.00;64.76
60427;BME280;46274;47.168;27.604;2022-08-19T08:37:36;99776.38;;;25.13;64.89
60427;BME280;46274;47.168;27.604;2022-08-19T08:43:39;99755.59;;;25.00;65.12
60427;BME280;46274;47.168;27.604;2022-08-19T08:50:12;99765.84;;;25.10;65.29
60427;BME280;46274;47.168;27.604;2022-08-19T08:56:16;99750.88;;;25.01;65.58
60427;BME280;46274;47.168;27.604;2022-08-19T09:02:19;99762.53;;;25.08;65.90
60427;BME280;46274;47.168;27.604;2022-08-19T09:15:03;99761.97;;;25.11;65.92
60427;BME280;46274;47.168;27.604;2022-08-19T09:21:05;99750.88;;;25.01;66.29
60427;BME280;46274;47.168;27.604;2022-08-19T09:27:09;99769.72;;;25.14;66.84
60427;BME280;46274;47.168;27.604;2022-08-19T09:33:19;99745.34;;;25.01;66.39
60427;BME280;46274;47.168;27.604;2022-08-19T09:39:21;99760.59;;;25.03;66.82
60427;BME280;46274;47.168;27.604;2022-08-19T09:45:23;99771.41;;;25.10;66.54
60427;BME280;46274;47.168;27.604;2022-08-19T09:51:26;99747.03;;;24.97;66.82
60427;BME280;46274;47.168;27.604;2022-08-19T09:57:29;99758.69;;;24.99;66.54
60427;BME280;46274;47.168;27.604;2022-08-19T10:03:32;99776.41;;;25.03;66.75
60427;BME280;46274;47.168;27.604;2022-08-19T10:09:34;99746.22;;;24.86;66.79
60427;BME280;46274;47.168;27.604;2022-08-19T10:15:36;99750.38;;;24.89;66.51
60427;BME280;46274;47.168;27.604;2022-08-19T10:21:48;99715.19;;;24.74;66.59
60427;BME280;46274;47.168;27.604;2022-08-19T10:27:50;99753.66;;;24.96;66.62
60427;BME280;46274;47.168;27.604;2022-08-19T10:33:56;99750.06;;;24.95;66.56
60427;BME280;46274;47.168;27.604;2022-08-19T10:40:04;99755.91;;;24.99;66.47
60427;BME280;46274;47.168;27.604;2022-08-19T10:46:09;99750.38;;;24.99;66.69
60427;BME280;46274;47.168;27.604;2022-08-19T10:52:16;99735.66;;;24.88;66.71
60427;BME280;46274;47.168;27.604;2022-08-19T10:58:39;99747.03;;;25.02;66.39
60427;BME280;46274;47.168;27.604;2022-08-19T11:04:43;99732.06;;;24.93;66.29
60427;BME280;46274;47.168;27.604;2022-08-19T11:10:47;99715.44;;;24.83;66.20
60427;BME280;46274;47.168;27.604;2022-08-19T11:16:51;99733.44;;;25.00;65.95
60427;BME280;46274;47.168;27.604;2022-08-19T11:22:57;99717.13;;;24.94;66.36
60427;BME280;46274;47.168;27.604;2022-08-19T11:29:00;99710.69;;;24.98;66.27
60427;BME280;46274;47.168;27.604;2022-08-19T11:35:02;99679.97;;;24.95;65.67
60427;BME280;46274;47.168;27.604;2022-08-19T11:41:06;99698.50;;;25.05;65.65
60427;BME280;46274;47.168;27.604;2022-08-19T11:47:11;99703.16;;;25.14;65.76
60427;BME280;46274;47.168;27.604;2022-08-19T11:53:12;99702.66;;;25.22;65.85
60427;BME280;46274;47.168;27.604;2022-08-19T11:59:14;99708.19;;;25.22;65.99
60427;BME280;46274;47.168;27.604;2022-08-19T12:05:17;99679.63;;;25.12;65.76
60427;BME280;46274;47.168;27.604;2022-08-19T12:11:19;99689.91;;;25.16;65.66
60427;BME280;46274;47.168;27.604;2022-08-19T12:17:21;99694.34;;;25.17;65.52
60427;BME280;46274;47.168;27.604;2022-08-19T12:23:23;99691.56;;;25.17;65.36
60427;BME280;46274;47.168;27.604;2022-08-19T12:29:25;99688.50;;;25.14;65.44
60427;BME280;46274;47.168;27.604;2022-08-19T12:35:30;99669.91;;;25.09;65.59
60427;BME280;46274;47.168;27.604;2022-08-19T12:41:33;99680.47;;;25.12;65.44
60427;BME280;46274;47.168;27.604;2022-08-19T12:47:34;99667.16;;;25.09;65.09
60427;BME280;46274;47.168;27.604;2022-08-19T12:53:41;99674.94;;;25.12;65.42
60427;BME280;46274;47.168;27.604;2022-08-19T12:59:43;99680.47;;;25.12;65.01
60427;BME280;46274;47.168;27.604;2022-08-19T13:05:46;99668.53;;;25.07;64.96
60427;BME280;46274;47.168;27.604;2022-08-19T13:11:47;99678.53;;;25.18;65.07
60427;BME280;46274;47.168;27.604;2022-08-19T13:17:51;99689.88;;;25.21;64.84
60427;BME280;46274;47.168;27.604;2022-08-19T13:23:53;99663.00;;;25.07;64.79
60427;BME280;46274;47.168;27.604;2022-08-19T13:29:55;99667.16;;;25.09;64.59
60427;BME280;46274;47.168;27.604;2022-08-19T13:36:16;99659.41;;;25.06;64.47
60427;BME280;46274;47.168;27.604;2022-08-19T13:42:17;99676.03;;;25.16;64.31
60427;BME280;46274;47.168;27.604;2022-08-19T13:48:21;99671.03;;;25.18;64.55
60427;BME280;46274;47.168;27.604;2022-08-19T13:54:23;99661.59;;;25.14;64.03
60427;BME280;46274;47.168;27.604;2022-08-19T14:00:27;99673.25;;;25.21;64.26
60427;BME280;46274;47.168;27.604;2022-08-19T14:06:29;99662.16;;;25.11;63.98
60427;BME280;46274;47.168;27.604;2022-08-19T14:12:31;99647.19;;;25.12;63.73
60427;BME280;46274;47.168;27.604;2022-08-19T14:18:33;99661.06;;;25.22;63.77
60427;BME280;46274;47.168;27.604;2022-08-19T14:24:37;99656.59;;;25.21;64.04
60427;BME280;46274;47.168;27.604;2022-08-19T14:30:48;99648.56;;;25.25;63.50
60427;BME280;46274;47.168;27.604;2022-08-19T14:36:55;99639.97;;;25.21;63.58
60427;BME280;46274;47.168;27.604;2022-08-19T14:43:00;99652.16;;;25.26;63.38
60427;BME280;46274;47.168;27.604;2022-08-19T14:49:05;99623.91;;;25.08;63.75
60427;BME280;46274;47.168;27.604;2022-08-19T14:55:10;99644.66;;;25.26;64.14
60427;BME280;46274;47.168;27.604;2022-08-19T15:01:12;99636.38;;;25.21;63.85
60427;BME280;46274;47.168;27.604;2022-08-19T15:07:14;99633.59;;;25.21;64.05
60427;BME280;46274;47.168;27.604;2022-08-19T15:13:16;99622.25;;;25.17;63.84
60427;BME280;46274;47.168;27.604;2022-08-19T15:19:18;99628.63;;;25.18;63.88
60427;BME280;46274;47.168;27.604;2022-08-19T15:25:20;99642.16;;;25.30;64.47
60427;BME280;46274;47.168;27.604;2022-08-19T15:31:22;99626.09;;;25.27;64.13
60427;BME280;46274;47.168;27.604;2022-08-19T15:37:29;99624.13;;;25.27;64.21
60427;BME280;46274;47.168;27.604;2022-08-19T15:43:31;99640.22;;;25.35;64.19
60427;BME280;46274;47.168;27.604;2022-08-19T15:49:33;99631.06;;;25.30;64.34
60427;BME280;46274;47.168;27.604;2022-08-19T15:55:42;99634.41;;;25.27;64.91
60427;BME280;46274;47.168;27.604;2022-08-19T16:01:44;99636.31;;;25.31;64.97
60427;BME280;46274;47.168;27.604;2022-08-19T16:08:04;99648.22;;;25.37;65.51
60427;BME280;46274;47.168;27.604;2022-08-19T16:14:07;99627.22;;;25.20;65.56
60427;BME280;46274;47.168;27.604;2022-08-19T16:20:10;99649.19;;;25.66;65.34
60427;BME280;46274;47.168;27.604;2022-08-19T16:26:13;99646.53;;;25.46;64.33
60427;BME280;46274;47.168;27.604;2022-08-19T16:32:15;99643.00;;;25.30;64.03
60427;BME280;46274;47.168;27.604;2022-08-19T16:38:17;99652.69;;;25.33;64.78
60427;BME280;46274;47.168;27.604;2022-08-19T16:44:19;99654.09;;;25.30;65.53
60427;BME280;46274;47.168;27.604;2022-08-19T16:50:22;99653.81;;;25.27;65.42
60427;BME280;46274;47.168;27.604;2022-08-19T16:56:44;99640.00;;;25.16;65.58
60427;BME280;46274;47.168;27.604;2022-08-19T17:02:46;99653.28;;;25.19;65.93
60427;BME280;46274;47.168;27.604;2022-08-19T17:08:49;99661.06;;;25.17;66.00
60427;BME280;46274;47.168;27.604;2022-08-19T17:14:51;99640.56;;;25.03;66.28
60427;BME280;46274;47.168;27.604;2022-08-19T17:20:53;99647.22;;;25.07;65.99
60427;BME280;46274;47.168;27.604;2022-08-19T17:26:57;99660.50;;;25.10;66.56
60427;BME280;46274;47.168;27.604;2022-08-19T17:32:58;99671.06;;;25.03;66.66
60427;BME280;46274;47.168;27.604;2022-08-19T17:39:02;99657.78;;;24.95;66.34
60427;BME280;46274;47.168;27.604;2022-08-19T17:45:05;99646.47;;;24.81;66.50
60427;BME280;46274;47.168;27.604;2022-08-19T17:57:33;99690.47;;;24.98;66.89
60427;BME280;46274;47.168;27.604;2022-08-19T18:03:35;99682.19;;;24.88;66.74
60427;BME280;46274;47.168;27.604;2022-08-19T18:09:39;99704.34;;;24.93;66.53
60427;BME280;46274;47.168;27.604;2022-08-19T18:15:43;99664.50;;;24.68;66.82
60427;BME280;46274;47.168;27.604;2022-08-19T18:21:44;99694.41;;;24.81;66.58
60427;BME280;46274;47.168;27.604;2022-08-19T18:27:47;99719.34;;;24.87;66.76
60427;BME280;46274;47.168;27.604;2022-08-19T18:33:49;99717.94;;;24.84;66.85
60427;BME280;46274;47.168;27.604;2022-08-19T18:39:53;99711.03;;;24.81;67.13
60427;BME280;46274;47.168;27.604;2022-08-19T18:46:13;99712.97;;;24.86;66.41
60427;BME280;46274;47.168;27.604;2022-08-19T18:52:38;99707.44;;;24.81;67.23
60427;BME280;46274;47.168;27.604;2022-08-19T18:58:41;99702.72;;;24.81;66.74
60427;BME280;46274;47.168;27.604;2022-08-19T19:04:43;99703.81;;;24.86;66.57
60427;BME280;46274;47.168;27.604;2022-08-19T19:10:46;99699.66;;;24.83;66.53
60427;BME280;46274;47.168;27.604;2022-08-19T19:16:51;99680.00;;;24.69;66.83
60427;BME280;46274;47.168;27.604;2022-08-19T19:22:53;99712.13;;;24.80;67.02
60427;BME280;46274;47.168;27.604;2022-08-19T19:28:58;99706.31;;;24.77;66.81
60427;BME280;46274;47.168;27.604;2022-08-19T19:35:00;99703.56;;;24.72;67.17
60427;BME280;46274;47.168;27.604;2022-08-19T19:41:03;99710.47;;;24.79;66.98
60427;BME280;46274;47.168;27.604;2022-08-19T19:47:05;99723.22;;;24.80;66.82
60427;BME280;46274;47.168;27.604;2022-08-19T19:53:07;99714.09;;;24.70;67.29
60427;BME280;46274;47.168;27.604;2022-08-19T19:59:09;99721.00;;;24.77;66.89
60427;BME280;46274;47.168;27.604;2022-08-19T20:05:11;99735.69;;;24.78;67.06
60427;BME280;46274;47.168;27.604;2022-08-19T20:11:30;99733.19;;;24.76;67.16
60427;BME280;46274;47.168;27.604;2022-08-19T20:17:33;99729.63;;;24.71;66.58
60427;BME280;46274;47.168;27.604;2022-08-19T20:23:42;99740.41;;;24.77;67.48
60427;BME280;46274;47.168;27.604;2022-08-19T20:30:10;99742.34;;;24.72;67.54
60427;BME280;46274;47.168;27.604;2022-08-19T20:36:19;99725.47;;;24.58;67.13
60427;BME280;46274;47.168;27.604;2022-08-19T20:42:21;99743.72;;;24.69;67.41
60427;BME280;46274;47.168;27.604;2022-08-19T20:48:23;99733.47;;;24.59;67.44
60427;BME280;46274;47.168;27.604;2022-08-19T20:54:25;99737.94;;;24.66;67.76
60427;BME280;46274;47.168;27.604;2022-08-19T21:00:27;99751.78;;;24.66;67.63
60427;BME280;46274;47.168;27.604;2022-08-19T21:06:30;99751.22;;;24.64;67.77
60427;BME280;46274;47.168;27.604;2022-08-19T21:12:32;99761.47;;;24.63;67.72
60427;BME280;46274;47.168;27.604;2022-08-19T21:18:34;99755.94;;;24.63;67.33
60427;BME280;46274;47.168;27.604;2022-08-19T21:24:36;99743.47;;;24.66;66.73
60427;BME280;46274;47.168;27.604;2022-08-19T21:30:39;99744.84;;;24.63;67.40
60427;BME280;46274;47.168;27.604;2022-08-19T21:36:41;99734.88;;;24.57;67.34
60427;BME280;46274;47.168;27.604;2022-08-19T21:42:44;99742.09;;;24.58;67.66
60427;BME280;46274;47.168;27.604;2022-08-19T21:48:46;99717.16;;;24.48;67.60
60427;BME280;46274;47.168;27.604;2022-08-19T21:54:49;99731.00;;;24.58;67.40
60427;BME280;46274;47.168;27.604;2022-08-19T22:00:50;99736.53;;;24.58;67.53
60427;BME280;46274;47.168;27.604;2022-08-19T22:06:52;99733.22;;;24.56;67.13
60427;BME280;46274;47.168;27.604;2022-08-19T22:12:55;99722.69;;;24.53;67.30
60427;BME280;46274;47.168;27.604;2022-08-19T22:18:57;99723.22;;;24.50;67.70
60427;BME280;46274;47.168;27.604;2022-08-19T22:25:13;99706.03;;;24.43;67.74
60427;BME280;46274;47.168;27.604;2022-08-19T22:31:32;99713.00;;;24.50;67.76
60427;BME280;46274;47.168;27.604;2022-08-19T22:37:34;99713.00;;;24.50;67.63
60427;BME280;46274;47.168;27.604;2022-08-19T22:43:36;99724.91;;;24.51;67.47
60427;BME280;46274;47.168;27.604;2022-08-19T22:49:37;99701.59;;;24.36;67.63
60427;BME280;46274;47.168;27.604;2022-08-19T22:55:39;99704.38;;;24.42;67.90
60427;BME280;46274;47.168;27.604;2022-08-19T23:01:41;99694.69;;;24.39;67.27
60427;BME280;46274;47.168;27.604;2022-08-19T23:07:43;99683.06;;;24.32;67.69
60427;BME280;46274;47.168;27.604;2022-08-19T23:13:52;99699.38;;;24.44;67.26
60427;BME280;46274;47.168;27.604;2022-08-19T23:19:54;99695.53;;;24.34;67.47
60427;BME280;46274;47.168;27.604;2022-08-19T23:25:56;99692.75;;;24.34;67.57
60427;BME280;46274;47.168;27.604;2022-08-19T23:31:58;99703.28;;;24.43;67.40
60427;BME280;46274;47.168;27.604;2022-08-19T23:37:59;99697.75;;;24.32;67.29
60427;BME280;46274;47.168;27.604;2022-08-19T23:44:04;99714.06;;;24.39;67.53
60427;BME280;46274;47.168;27.604;2022-08-19T23:50:15;99705.47;;;24.25;67.74
60427;BME280;46274;47.168;27.604;2022-08-19T23:56:17;99725.69;;;24.36;67.87
